Blackford, Kentucky
Current Conditions -  °F | °C
As of 4:55 AM on Monday 20 Oct 2014 (Local Time) from K5M9 Reporting Station
Scattered Clouds Scattered Clouds  
Wind Chill: 48°   Ceiling: Unl
Heat Index: 48°   Visibility: 10mi
Dew Point: 46°   Wind: 3mph
Humidity: 93%   Direction: 210°SSW
Pressure: 30.04"   Gusts: NA
Location:  37.45°N, 87.94°W
Report Text: K5M9 200955Z AUTO 21003KT 10SM SCT120 09/08 A3004 RMK AO2 T00870076
Loading
Personal Weather Stations






























Interactive Weather Map
Tropical Storm Tracking
New forecast layout! Learn more

10-Day Weather Forecast

Advertisements
Track Severe Weather on mobile